createdAt,value
2017-10-11T00:00:36.046Z,0
2017-10-11T00:01:35.879Z,0
2017-10-11T00:02:35.649Z,0
2017-10-11T00:03:35.543Z,0
2017-10-11T00:04:35.858Z,0
2017-10-11T00:05:35.529Z,0
2017-10-11T00:06:35.942Z,0
2017-10-11T00:07:36.052Z,0
2017-10-11T00:08:35.609Z,0
2017-10-11T00:09:35.920Z,0
2017-10-11T00:10:35.494Z,0
2017-10-11T00:11:35.489Z,0
2017-10-11T00:12:35.585Z,0
2017-10-11T00:13:36.235Z,0
2017-10-11T00:14:35.785Z,0
2017-10-11T00:15:35.137Z,0
2017-10-11T00:16:35.132Z,0
2017-10-11T00:17:35.124Z,0
2017-10-11T00:18:35.546Z,0
2017-10-11T00:19:35.762Z,0
2017-10-11T00:20:35.426Z,0
2017-10-11T00:21:36.060Z,0
2017-10-11T00:22:35.736Z,0
2017-10-11T00:23:35.827Z,0
2017-10-11T00:24:35.818Z,0
2017-10-11T00:25:35.401Z,0
2017-10-11T00:26:35.380Z,0
2017-10-11T00:27:35.696Z,0
2017-10-11T00:28:35.146Z,0
2017-10-11T00:29:35.883Z,0
2017-10-11T00:30:35.033Z,0
2017-10-11T00:31:35.669Z,0
2017-10-11T00:32:35.762Z,0
2017-10-11T00:33:35.972Z,0
2017-10-11T00:34:35.675Z,0
2017-10-11T00:35:35.738Z,0
2017-10-11T00:36:35.634Z,0
2017-10-11T00:37:35.402Z,0
2017-10-11T00:38:35.300Z,0
2017-10-11T00:39:35.292Z,0
2017-10-11T00:40:35.383Z,0
2017-10-11T00:41:35.603Z,0
2017-10-11T00:42:35.913Z,0
2017-10-11T00:43:35.588Z,0
2017-10-11T00:44:34.941Z,0
2017-10-11T00:45:35.445Z,0
2017-10-11T00:46:35.672Z,0
2017-10-11T00:47:35.890Z,0
2017-10-11T00:48:35.549Z,0
2017-10-11T00:49:34.901Z,0
2017-10-11T00:50:35.538Z,0
2017-10-11T00:51:35.631Z,0
2017-10-11T00:52:35.298Z,0
2017-10-11T00:53:35.622Z,0
2017-10-11T00:54:34.864Z,0
2017-10-11T00:55:35.285Z,0
2017-10-11T00:56:35.596Z,0
2017-10-11T00:57:35.267Z,0
2017-10-11T00:58:35.638Z,0
2017-10-11T00:59:35.474Z,0
2017-10-11T01:00:35.145Z,0
2017-10-11T01:01:35.557Z,0
2017-10-11T01:02:35.231Z,0
2017-10-11T01:03:35.228Z,0
2017-10-11T01:04:34.995Z,0
2017-10-11T01:05:35.110Z,0
2017-10-11T01:06:35.103Z,0
2017-10-11T01:07:35.521Z,0
2017-10-11T01:08:35.091Z,0
2017-10-11T01:09:35.181Z,0
2017-10-11T01:10:34.853Z,0
2017-10-11T01:11:35.723Z,0
2017-10-11T01:12:35.161Z,0
2017-10-11T01:13:35.049Z,0
2017-10-11T01:14:35.043Z,0
2017-10-11T01:15:34.816Z,0
2017-10-11T01:16:35.031Z,0
2017-10-11T01:17:35.028Z,0
2017-10-11T01:18:35.659Z,0
2017-10-11T01:19:35.016Z,0
2017-10-11T01:20:35.750Z,0
2017-10-11T01:21:34.992Z,0
2017-10-11T01:22:35.409Z,0
2017-10-11T01:23:34.662Z,0
2017-10-11T01:24:34.975Z,0
2017-10-11T01:25:35.286Z,0
2017-10-11T01:26:35.283Z,0
2017-10-11T01:27:34.832Z,0
2017-10-11T01:28:35.094Z,0
2017-10-11T01:29:35.261Z,0
2017-10-11T01:30:34.935Z,0
2017-10-11T01:31:35.565Z,0
2017-10-11T01:32:35.014Z,0
2017-10-11T01:33:35.109Z,0
2017-10-11T01:34:35.228Z,0
2017-10-11T01:35:35.219Z,0
2017-10-11T01:36:34.887Z,0
2017-10-11T01:37:34.982Z,0
2017-10-11T01:38:34.978Z,0
2017-10-11T01:39:34.699Z,0
2017-10-11T01:40:35.190Z,0
2017-10-11T01:41:34.536Z,0
2017-10-11T01:42:34.862Z,0
2017-10-11T01:43:35.390Z,0
2017-10-11T01:44:34.834Z,0
2017-10-11T01:45:34.830Z,0
2017-10-11T01:46:35.143Z,0
2017-10-11T01:47:35.127Z,0
2017-10-11T01:48:35.228Z,0
2017-10-11T01:49:34.575Z,0
2017-10-11T01:50:34.791Z,0
2017-10-11T01:51:34.461Z,0
2017-10-11T01:52:35.101Z,0
2017-10-11T01:53:34.770Z,0
2017-10-11T01:54:34.760Z,0
2017-10-11T01:55:34.861Z,0
2017-10-11T01:56:35.065Z,0
2017-10-11T01:57:35.163Z,0
2017-10-11T01:58:35.477Z,0
2017-10-11T01:59:35.470Z,0
2017-10-11T02:00:35.046Z,0
2017-10-11T02:01:34.713Z,0
2017-10-11T02:02:35.348Z,0
2017-10-11T02:03:34.808Z,0
2017-10-11T02:04:34.789Z,0
2017-10-11T02:05:34.360Z,0
2017-10-11T02:06:34.678Z,0
2017-10-11T02:07:35.089Z,0
2017-10-11T02:08:34.875Z,0
2017-10-11T02:09:34.751Z,0
2017-10-11T02:10:35.291Z,0
2017-10-11T02:11:35.161Z,0
2017-10-11T02:12:34.959Z,0
2017-10-11T02:13:34.725Z,0
2017-10-11T02:14:35.135Z,0
2017-10-11T02:15:34.614Z,0
2017-10-11T02:16:34.603Z,0
2017-10-11T02:17:34.924Z,0
2017-10-11T02:18:34.933Z,0
2017-10-11T02:19:35.165Z,0
2017-10-11T02:20:34.906Z,0
2017-10-11T02:21:34.251Z,0
2017-10-11T02:22:34.666Z,0
2017-10-11T02:23:34.552Z,0
2017-10-11T02:24:34.877Z,0
2017-10-11T02:25:34.862Z,0
2017-10-11T02:26:34.860Z,0
2017-10-11T02:27:34.947Z,0
2017-10-11T02:28:35.160Z,0
2017-10-11T02:29:34.614Z,0
2017-10-11T02:30:35.146Z,0
2017-10-11T02:31:34.601Z,0
2017-10-11T02:32:34.591Z,0
2017-10-11T02:33:34.584Z,0
2017-10-11T02:34:35.115Z,0
2017-10-11T02:35:34.796Z,0
2017-10-11T02:36:34.478Z,0
2017-10-11T02:37:34.560Z,0
2017-10-11T02:38:34.775Z,0
2017-10-11T02:39:34.538Z,0
2017-10-11T02:40:34.435Z,0
2017-10-11T02:41:34.847Z,0
2017-10-11T02:42:34.431Z,0
2017-10-11T02:43:34.732Z,0
2017-10-11T02:44:34.834Z,0
2017-10-11T02:45:34.276Z,0
2017-10-11T02:46:34.388Z,0
2017-10-11T02:47:35.029Z,0
2017-10-11T02:48:34.384Z,0
2017-10-11T02:49:34.788Z,0
2017-10-11T02:50:34.140Z,0
2017-10-11T02:51:34.356Z,0
2017-10-11T02:52:34.348Z,0
2017-10-11T02:53:34.339Z,0
2017-10-11T02:54:34.436Z,0
2017-10-11T02:55:34.329Z,0
2017-10-11T02:56:34.316Z,0
2017-10-11T02:57:35.147Z,0
2017-10-11T02:58:34.628Z,0
2017-10-11T02:59:34.615Z,0
2017-10-11T03:00:33.968Z,0
2017-10-11T03:01:34.384Z,0
2017-10-11T03:02:34.696Z,0
2017-10-11T03:03:34.267Z,0
2017-10-11T03:04:35.022Z,0
2017-10-11T03:05:34.894Z,0
2017-10-11T03:06:33.922Z,0
2017-10-11T03:07:34.337Z,0
2017-10-11T03:08:34.977Z,0
2017-10-11T03:09:34.642Z,0
2017-10-11T03:10:34.857Z,0
2017-10-11T03:11:33.892Z,0
2017-10-11T03:12:33.880Z,0
2017-10-11T03:13:34.293Z,0
2017-10-11T03:14:34.286Z,0
2017-10-11T03:15:34.649Z,0
2017-10-11T03:16:34.179Z,0
2017-10-11T03:17:34.168Z,0
2017-10-11T03:18:34.261Z,0
2017-10-11T03:19:33.830Z,0
2017-10-11T03:20:34.121Z,0
2017-10-11T03:21:34.471Z,0
2017-10-11T03:22:33.805Z,0
2017-10-11T03:23:34.439Z,0
2017-10-11T03:24:34.861Z,0
2017-10-11T03:25:34.315Z,0
2017-10-11T03:26:34.515Z,0
2017-10-11T03:27:34.416Z,0
2017-10-11T03:28:34.085Z,0
2017-10-11T03:29:34.823Z,0
2017-10-11T03:30:34.878Z,0
2017-10-11T03:31:34.802Z,0
2017-10-11T03:32:34.168Z,0
2017-10-11T03:33:34.368Z,0
2017-10-11T03:34:34.147Z,0
2017-10-11T03:35:33.715Z,0
2017-10-11T03:36:33.804Z,0
2017-10-11T03:37:34.171Z,0
2017-10-11T03:38:34.663Z,0
2017-10-11T03:39:33.788Z,0
2017-10-11T03:40:34.412Z,0
2017-10-11T03:41:33.669Z,0
2017-10-11T03:42:34.081Z,0
2017-10-11T03:43:34.294Z,0
2017-10-11T03:44:33.746Z,0
2017-10-11T03:45:34.064Z,0
2017-10-11T03:46:33.953Z,0
2017-10-11T03:47:34.149Z,0
2017-10-11T03:48:33.943Z,0
2017-10-11T03:49:34.575Z,0
2017-10-11T03:50:34.025Z,0
2017-10-11T03:51:34.242Z,0
2017-10-11T03:52:34.652Z,0
2017-10-11T03:53:34.226Z,0
2017-10-11T03:54:33.900Z,0
2017-10-11T03:55:33.986Z,0
2017-10-11T03:56:34.200Z,0
2017-10-11T03:57:34.343Z,0
2017-10-11T03:58:33.743Z,0
2017-10-11T03:59:33.858Z,0
2017-10-11T04:00:34.505Z,0
2017-10-11T04:01:33.853Z,0
2017-10-11T04:02:33.836Z,0
2017-10-11T04:03:34.247Z,0
2017-10-11T04:04:33.501Z,0
2017-10-11T04:05:33.815Z,0
2017-10-11T04:06:33.803Z,0
2017-10-11T04:07:34.372Z,0
2017-10-11T04:08:34.316Z,0
2017-10-11T04:09:34.103Z,0
2017-10-11T04:10:33.877Z,0
2017-10-11T04:11:33.785Z,0
2017-10-11T04:12:34.085Z,0
2017-10-11T04:13:34.091Z,0
2017-10-11T04:14:33.426Z,0
2017-10-11T04:15:34.175Z,0
2017-10-11T04:16:33.831Z,0
2017-10-11T04:17:34.152Z,0
2017-10-11T04:18:34.041Z,0
2017-10-11T04:19:34.194Z,0
2017-10-11T04:20:33.383Z,0
2017-10-11T04:21:34.443Z,0
2017-10-11T04:22:33.367Z,0
2017-10-11T04:23:33.680Z,0
2017-10-11T04:24:34.414Z,0
2017-10-11T04:25:33.986Z,0
2017-10-11T04:26:33.986Z,0
2017-10-11T04:27:33.860Z,0
2017-10-11T04:28:33.978Z,0
2017-10-11T04:29:33.649Z,0
2017-10-11T04:30:33.745Z,0
2017-10-11T04:31:33.620Z,0
2017-10-11T04:32:34.040Z,0
2017-10-11T04:33:34.255Z,0
2017-10-11T04:34:34.023Z,0
2017-10-11T04:35:34.237Z,0
2017-10-11T04:36:34.008Z,0
2017-10-11T04:37:34.004Z,0
2017-10-11T04:38:33.894Z,0
2017-10-11T04:39:33.717Z,0
2017-10-11T04:40:33.977Z,0
2017-10-11T04:41:33.552Z,0
2017-10-11T04:42:34.193Z,0
2017-10-11T04:43:34.074Z,0
2017-10-11T04:44:34.314Z,0
2017-10-11T04:45:33.840Z,0
2017-10-11T04:46:33.514Z,0
2017-10-11T04:47:33.285Z,0
2017-10-11T04:48:33.278Z,0
2017-10-11T04:49:33.645Z,0
2017-10-11T04:50:33.490Z,0
2017-10-11T04:51:33.805Z,0
2017-10-11T04:52:33.467Z,0
2017-10-11T04:53:33.980Z,0
2017-10-11T04:54:33.450Z,0
2017-10-11T04:55:34.241Z,0
2017-10-11T04:56:33.763Z,0
2017-10-11T04:57:33.112Z,0
2017-10-11T04:58:33.843Z,0
2017-10-11T04:59:33.519Z,0
2017-10-11T05:00:33.829Z,0
2017-10-11T05:01:33.825Z,0
2017-10-11T05:02:34.043Z,0
2017-10-11T05:03:33.486Z,0
2017-10-11T05:04:33.708Z,0
2017-10-11T05:05:33.947Z,0
2017-10-11T05:06:33.364Z,0
2017-10-11T05:07:33.037Z,0
2017-10-11T05:08:33.670Z,0
2017-10-11T05:09:33.763Z,0
2017-10-11T05:10:33.686Z,0
2017-10-11T05:11:33.110Z,0
2017-10-11T05:12:33.750Z,0
2017-10-11T05:13:33.642Z,0
2017-10-11T05:14:33.635Z,0
2017-10-11T05:15:33.079Z,0
2017-10-11T05:16:33.292Z,0
2017-10-11T05:17:33.385Z,0
2017-10-11T05:18:33.276Z,0
2017-10-11T05:19:32.949Z,4
2017-10-11T05:20:32.945Z,0
2017-10-11T05:21:32.933Z,4
2017-10-11T05:22:33.248Z,4
2017-10-11T05:23:33.240Z,4
2017-10-11T05:24:33.015Z,4
2017-10-11T05:25:33.482Z,4
2017-10-11T05:26:33.314Z,4
2017-10-11T05:27:33.854Z,8
2017-10-11T05:28:33.202Z,8
2017-10-11T05:29:33.625Z,12
2017-10-11T05:30:33.390Z,8
2017-10-11T05:31:33.181Z,12
2017-10-11T05:32:32.872Z,16
2017-10-11T05:33:33.168Z,12
2017-10-11T05:34:33.164Z,16
2017-10-11T05:35:33.354Z,20
2017-10-11T05:36:33.243Z,20
2017-10-11T05:37:33.136Z,24
2017-10-11T05:38:33.458Z,24
2017-10-11T05:39:33.126Z,24
2017-10-11T05:40:33.537Z,28
2017-10-11T05:41:33.205Z,28
2017-10-11T05:42:33.859Z,32
2017-10-11T05:43:33.424Z,36
2017-10-11T05:44:33.083Z,36
2017-10-11T05:45:33.074Z,40
2017-10-11T05:46:33.168Z,40
2017-10-11T05:47:33.064Z,48
2017-10-11T05:48:33.161Z,48
2017-10-11T05:49:33.481Z,52
2017-10-11T05:50:33.479Z,56
2017-10-11T05:51:33.461Z,56
2017-10-11T05:52:33.352Z,64
2017-10-11T05:53:32.797Z,64
2017-10-11T05:54:33.649Z,68
2017-10-11T05:55:32.785Z,72
2017-10-11T05:56:33.317Z,72
2017-10-11T05:57:32.666Z,76
2017-10-11T05:58:33.630Z,80
2017-10-11T05:59:33.296Z,84
2017-10-11T06:00:32.648Z,88
2017-10-11T06:01:32.642Z,88
2017-10-11T06:02:32.634Z,96
2017-10-11T06:03:33.048Z,100
2017-10-11T06:04:32.718Z,100
2017-10-11T06:05:33.260Z,108
2017-10-11T06:06:32.604Z,112
2017-10-11T06:07:33.561Z,116
2017-10-11T06:08:33.010Z,120
2017-10-11T06:09:33.002Z,128
2017-10-11T06:10:33.096Z,132
2017-10-11T06:11:33.210Z,140
2017-10-11T06:12:32.561Z,144
2017-10-11T06:13:32.551Z,152
2017-10-11T06:14:33.192Z,156
2017-10-11T06:15:32.862Z,160
2017-10-11T06:16:32.856Z,164
2017-10-11T06:17:33.111Z,168
2017-10-11T06:18:32.514Z,172
2017-10-11T06:19:33.483Z,180
2017-10-11T06:20:33.246Z,184
2017-10-11T06:21:33.262Z,192
2017-10-11T06:22:32.903Z,196
2017-10-11T06:23:32.897Z,204
2017-10-11T06:24:33.116Z,212
2017-10-11T06:25:33.108Z,220
2017-10-11T06:26:32.777Z,224
2017-10-11T06:27:33.087Z,236
2017-10-11T06:28:32.959Z,244
2017-10-11T06:29:32.854Z,252
2017-10-11T06:30:32.845Z,260
2017-10-11T06:31:32.741Z,264
2017-10-11T06:32:32.730Z,268
2017-10-11T06:33:33.153Z,268
2017-10-11T06:34:32.716Z,272
2017-10-11T06:35:33.130Z,276
2017-10-11T06:36:32.796Z,280
2017-10-11T06:37:33.015Z,284
2017-10-11T06:38:33.018Z,288
2017-10-11T06:39:33.011Z,292
2017-10-11T06:40:32.774Z,288
2017-10-11T06:41:32.667Z,292
2017-10-11T06:42:33.099Z,292
2017-10-11T06:43:32.648Z,304
2017-10-11T06:44:33.073Z,312
2017-10-11T06:45:32.637Z,312
2017-10-11T06:46:32.949Z,316
2017-10-11T06:47:32.621Z,324
2017-10-11T06:48:32.810Z,332
2017-10-11T06:49:32.604Z,348
2017-10-11T06:50:32.594Z,348
2017-10-11T06:51:32.589Z,340
2017-10-11T06:52:32.902Z,332
2017-10-11T06:53:32.254Z,328
2017-10-11T06:54:32.728Z,328
2017-10-11T06:55:32.888Z,332
2017-10-11T06:56:32.975Z,332
2017-10-11T06:57:32.541Z,340
2017-10-11T06:58:32.640Z,344
2017-10-11T06:59:32.853Z,348
2017-10-11T07:00:32.522Z,344
2017-10-11T07:01:32.501Z,348
2017-10-11T07:02:32.835Z,360
2017-10-11T07:03:32.825Z,360
2017-10-11T07:04:32.170Z,360
2017-10-11T07:05:32.911Z,356
2017-10-11T07:06:32.803Z,368
2017-10-11T07:07:32.898Z,376
2017-10-11T07:08:32.803Z,380
2017-10-11T07:09:32.454Z,380
2017-10-11T07:10:33.192Z,380
2017-10-11T07:11:32.541Z,380
2017-10-11T07:12:32.433Z,376
2017-10-11T07:13:32.747Z,380
2017-10-11T07:14:32.419Z,376
2017-10-11T07:15:32.732Z,380
2017-10-11T07:16:32.405Z,380
2017-10-11T07:17:33.038Z,380
2017-10-11T07:18:32.586Z,384
2017-10-11T07:19:32.708Z,388
2017-10-11T07:20:32.054Z,388
2017-10-11T07:21:32.473Z,388
2017-10-11T07:22:32.694Z,388
2017-10-11T07:23:32.998Z,392
2017-10-11T07:24:32.121Z,384
2017-10-11T07:25:32.664Z,384
2017-10-11T07:26:32.765Z,384
2017-10-11T07:27:32.974Z,384
2017-10-11T07:28:32.736Z,384
2017-10-11T07:29:32.420Z,380
2017-10-11T07:30:31.980Z,380
2017-10-11T07:31:32.723Z,368
2017-10-11T07:32:32.080Z,372
2017-10-11T07:33:32.608Z,372
2017-10-11T07:34:32.274Z,380
2017-10-11T07:35:32.586Z,380
2017-10-11T07:36:32.354Z,376
2017-10-11T07:37:32.347Z,384
2017-10-11T07:38:32.663Z,376
2017-10-11T07:39:32.233Z,372
2017-10-11T07:40:32.432Z,372
2017-10-11T07:41:32.222Z,368
2017-10-11T07:42:32.536Z,364
2017-10-11T07:43:32.536Z,360
2017-10-11T07:44:32.078Z,352
2017-10-11T07:45:32.191Z,352
2017-10-11T07:46:32.530Z,348
2017-10-11T07:47:32.286Z,356
2017-10-11T07:48:32.830Z,364
2017-10-11T07:49:32.615Z,372
2017-10-11T07:50:32.160Z,364
2017-10-11T07:51:32.812Z,372
2017-10-11T07:52:32.155Z,380
2017-10-11T07:53:32.581Z,380
2017-10-11T07:54:32.468Z,384
2017-10-11T07:55:31.911Z,380
2017-10-11T07:56:32.454Z,384
2017-10-11T07:57:32.870Z,384
2017-10-11T07:58:32.246Z,380
2017-10-11T07:59:31.781Z,380
2017-10-11T08:00:32.197Z,380
2017-10-11T08:01:32.750Z,380
2017-10-11T08:02:31.859Z,388
2017-10-11T08:03:32.725Z,388
2017-10-11T08:04:32.392Z,384
2017-10-11T08:05:32.603Z,380
2017-10-11T08:06:32.481Z,372
2017-10-11T08:07:32.049Z,372
2017-10-11T08:08:31.717Z,380
2017-10-11T08:09:32.363Z,388
2017-10-11T08:10:32.792Z,384
2017-10-11T08:11:32.342Z,388
2017-10-11T08:12:32.010Z,384
2017-10-11T08:13:32.329Z,384
2017-10-11T08:14:31.995Z,384
2017-10-11T08:15:31.667Z,380
2017-10-11T08:16:31.658Z,376
2017-10-11T08:17:32.301Z,392
2017-10-11T08:18:32.401Z,392
2017-10-11T08:19:32.282Z,388
2017-10-11T08:20:32.372Z,392
2017-10-11T08:21:32.096Z,388
2017-10-11T08:22:31.935Z,376
2017-10-11T08:23:32.262Z,384
2017-10-11T08:24:32.247Z,396
2017-10-11T08:25:32.238Z,396
2017-10-11T08:26:32.008Z,392
2017-10-11T08:27:32.231Z,392
2017-10-11T08:28:32.546Z,392
2017-10-11T08:29:32.317Z,396
2017-10-11T08:30:31.556Z,396
2017-10-11T08:31:32.080Z,396
2017-10-11T08:32:31.879Z,400
2017-10-11T08:33:32.284Z,396
2017-10-11T08:34:32.600Z,388
2017-10-11T08:35:32.270Z,404
2017-10-11T08:36:32.362Z,408
2017-10-11T08:37:31.829Z,408
2017-10-11T08:38:32.246Z,408
2017-10-11T08:39:31.913Z,408
2017-10-11T08:40:31.806Z,412
2017-10-11T08:41:31.949Z,412
2017-10-11T08:42:31.790Z,412
2017-10-11T08:43:31.461Z,416
2017-10-11T08:44:31.786Z,416
2017-10-11T08:45:32.526Z,412
2017-10-11T08:46:31.780Z,416
2017-10-11T08:47:31.756Z,420
2017-10-11T08:48:31.752Z,416
2017-10-11T08:49:31.423Z,420
2017-10-11T08:50:32.063Z,420
2017-10-11T08:51:32.149Z,420
2017-10-11T08:52:31.726Z,424
2017-10-11T08:53:32.364Z,428
2017-10-11T08:54:31.807Z,424
2017-10-11T08:55:32.028Z,428
2017-10-11T08:56:31.474Z,432
2017-10-11T08:57:31.687Z,436
2017-10-11T08:58:31.698Z,440
2017-10-11T08:59:31.354Z,440
2017-10-11T09:00:31.667Z,440
2017-10-11T09:01:32.543Z,444
2017-10-11T09:02:31.330Z,440
2017-10-11T09:03:31.650Z,440
2017-10-11T09:04:31.649Z,444
2017-10-11T09:05:31.986Z,448
2017-10-11T09:06:31.453Z,444
2017-10-11T09:07:31.944Z,444
2017-10-11T09:08:31.609Z,444
2017-10-11T09:09:32.029Z,440
2017-10-11T09:10:32.240Z,448
2017-10-11T09:11:31.690Z,452
2017-10-11T09:12:31.683Z,452
2017-10-11T09:13:31.249Z,452
2017-10-11T09:14:31.581Z,456
2017-10-11T09:15:31.390Z,456
2017-10-11T09:16:32.214Z,456
2017-10-11T09:17:31.554Z,456
2017-10-11T09:18:31.972Z,460
2017-10-11T09:19:31.213Z,464
2017-10-11T09:20:31.353Z,460
2017-10-11T09:21:31.522Z,460
2017-10-11T09:22:31.516Z,464
2017-10-11T09:23:31.607Z,468
2017-10-11T09:24:31.919Z,468
2017-10-11T09:25:31.496Z,464
2017-10-11T09:26:31.482Z,468
2017-10-11T09:27:31.834Z,468
2017-10-11T09:28:31.795Z,476
2017-10-11T09:29:31.140Z,476
2017-10-11T09:30:31.657Z,480
2017-10-11T09:31:31.775Z,480
2017-10-11T09:32:31.441Z,476
2017-10-11T09:33:31.862Z,476
2017-10-11T09:34:31.853Z,476
2017-10-11T09:35:31.945Z,480
2017-10-11T09:36:31.412Z,484
2017-10-11T09:37:31.737Z,480
2017-10-11T09:38:31.724Z,480
2017-10-11T09:39:31.723Z,484
2017-10-11T09:40:31.806Z,492
2017-10-11T09:41:31.382Z,488
2017-10-11T09:42:32.022Z,484
2017-10-11T09:43:31.369Z,492
2017-10-11T09:44:31.718Z,488
2017-10-11T09:45:31.792Z,488
2017-10-11T09:46:31.545Z,488
2017-10-11T09:47:31.346Z,496
2017-10-11T09:48:31.331Z,496
2017-10-11T09:49:31.745Z,492
2017-10-11T09:50:32.061Z,496
2017-10-11T09:51:31.735Z,496
2017-10-11T09:52:31.628Z,496
2017-10-11T09:53:31.628Z,500
2017-10-11T09:54:31.612Z,500
2017-10-11T09:55:31.703Z,508
2017-10-11T09:56:31.694Z,504
2017-10-11T09:57:31.919Z,512
2017-10-11T09:58:31.688Z,508
2017-10-11T09:59:31.257Z,516
2017-10-11T10:00:31.355Z,500
2017-10-11T10:01:31.241Z,504
2017-10-11T10:02:32.036Z,516
2017-10-11T10:03:31.229Z,512
2017-10-11T10:04:31.318Z,512
2017-10-11T10:05:31.313Z,528
2017-10-11T10:06:31.205Z,516
2017-10-11T10:07:31.622Z,516
2017-10-11T10:08:31.989Z,524
2017-10-11T10:09:31.187Z,524
2017-10-11T10:10:31.704Z,520
2017-10-11T10:11:31.493Z,524
2017-10-11T10:12:31.488Z,532
2017-10-11T10:13:31.577Z,532
2017-10-11T10:14:31.794Z,540
2017-10-11T10:15:31.571Z,544
2017-10-11T10:16:31.466Z,548
2017-10-11T10:17:30.804Z,544
2017-10-11T10:18:31.547Z,540
2017-10-11T10:19:31.118Z,544
2017-10-11T10:20:31.532Z,548
2017-10-11T10:21:31.212Z,548
2017-10-11T10:22:31.203Z,544
2017-10-11T10:23:30.767Z,552
2017-10-11T10:24:31.407Z,548
2017-10-11T10:25:31.399Z,544
2017-10-11T10:26:31.499Z,548
2017-10-11T10:27:30.739Z,544
2017-10-11T10:28:31.514Z,544
2017-10-11T10:29:30.724Z,548
2017-10-11T10:30:31.046Z,552
2017-10-11T10:31:31.889Z,552
2017-10-11T10:32:31.458Z,556
2017-10-11T10:33:31.020Z,564
2017-10-11T10:34:31.665Z,568
2017-10-11T10:35:31.012Z,560
2017-10-11T10:36:31.766Z,560
2017-10-11T10:37:31.327Z,564
2017-10-11T10:38:31.310Z,560
2017-10-11T10:39:30.659Z,560
2017-10-11T10:40:31.300Z,564
2017-10-11T10:41:31.304Z,568
2017-10-11T10:42:31.707Z,564
2017-10-11T10:43:31.291Z,576
2017-10-11T10:44:30.959Z,572
2017-10-11T10:45:30.941Z,576
2017-10-11T10:46:30.941Z,576
2017-10-11T10:47:30.927Z,572
2017-10-11T10:48:31.445Z,568
2017-10-11T10:49:30.928Z,576
2017-10-11T10:50:30.905Z,576
2017-10-11T10:51:30.996Z,572
2017-10-11T10:52:30.890Z,580
2017-10-11T10:53:30.888Z,580
2017-10-11T10:54:30.658Z,580
2017-10-11T10:55:31.201Z,588
2017-10-11T10:56:30.544Z,580
2017-10-11T10:57:30.860Z,580
2017-10-11T10:58:31.310Z,584
2017-10-11T10:59:31.169Z,584
2017-10-11T11:00:30.846Z,588
2017-10-11T11:01:31.159Z,584
2017-10-11T11:02:31.152Z,584
2017-10-11T11:03:31.248Z,584
2017-10-11T11:04:31.469Z,592
2017-10-11T11:05:30.806Z,592
2017-10-11T11:06:30.479Z,588
2017-10-11T11:07:30.791Z,588
2017-10-11T11:08:30.783Z,592
2017-10-11T11:09:31.122Z,588
2017-10-11T11:10:31.439Z,592
2017-10-11T11:11:30.969Z,592
2017-10-11T11:12:31.191Z,600
2017-10-11T11:13:30.752Z,600
2017-10-11T11:14:30.746Z,604
2017-10-11T11:15:31.061Z,604
2017-10-11T11:16:30.840Z,608
2017-10-11T11:17:30.729Z,608
2017-10-11T11:18:31.042Z,612
2017-10-11T11:19:31.034Z,616
2017-10-11T11:20:30.386Z,612
2017-10-11T11:21:31.222Z,616
2017-10-11T11:22:30.690Z,620
2017-10-11T11:23:30.844Z,624
2017-10-11T11:24:30.680Z,620
2017-10-11T11:25:30.994Z,624
2017-10-11T11:26:30.767Z,628
2017-10-11T11:27:30.660Z,628
2017-10-11T11:28:31.077Z,624
2017-10-11T11:29:30.974Z,648
2017-10-11T11:30:30.318Z,640
2017-10-11T11:31:31.057Z,632
2017-10-11T11:32:30.630Z,632
2017-10-11T11:33:30.722Z,636
2017-10-11T11:34:30.935Z,636
2017-10-11T11:35:30.603Z,632
2017-10-11T11:36:30.925Z,636
2017-10-11T11:37:30.593Z,636
2017-10-11T11:38:30.924Z,644
2017-10-11T11:39:30.584Z,644
2017-10-11T11:40:30.898Z,644
2017-10-11T11:41:30.573Z,644
2017-10-11T11:42:30.238Z,648
2017-10-11T11:43:30.654Z,648
2017-10-11T11:44:30.548Z,656
2017-10-11T11:45:30.964Z,652
2017-10-11T11:46:30.858Z,656
2017-10-11T11:47:30.851Z,652
2017-10-11T11:48:30.197Z,660
2017-10-11T11:49:30.840Z,664
2017-10-11T11:50:30.932Z,668
2017-10-11T11:51:30.603Z,668
2017-10-11T11:52:30.497Z,668
2017-10-11T11:53:30.163Z,668
2017-10-11T11:54:31.056Z,676
2017-10-11T11:55:30.900Z,668
2017-10-11T11:56:30.795Z,672
2017-10-11T11:57:30.140Z,668
2017-10-11T11:58:30.453Z,680
2017-10-11T11:59:30.552Z,684
2017-10-11T12:00:30.443Z,700
2017-10-11T12:01:30.537Z,696
2017-10-11T12:02:31.180Z,692
2017-10-11T12:03:30.420Z,680
2017-10-11T12:04:30.751Z,696
2017-10-11T12:05:31.064Z,700
2017-10-11T12:06:30.405Z,692
2017-10-11T12:07:30.396Z,700
2017-10-11T12:08:30.719Z,700
2017-10-11T12:09:30.532Z,712
2017-10-11T12:10:30.375Z,692
2017-10-11T12:11:31.123Z,688
2017-10-11T12:12:30.138Z,696
2017-10-11T12:13:31.007Z,688
2017-10-11T12:14:30.452Z,696
2017-10-11T12:15:30.774Z,700
2017-10-11T12:16:30.114Z,704
2017-10-11T12:17:30.655Z,704
2017-10-11T12:18:30.648Z,708
2017-10-11T12:19:30.098Z,708
2017-10-11T12:20:30.634Z,712
2017-10-11T12:21:30.408Z,712
2017-10-11T12:22:30.403Z,716
2017-10-11T12:23:30.292Z,712
2017-10-11T12:24:31.034Z,716
2017-10-11T12:25:30.700Z,712
2017-10-11T12:26:30.370Z,716
2017-10-11T12:27:30.367Z,712
2017-10-11T12:28:29.935Z,728
2017-10-11T12:29:30.483Z,732
2017-10-11T12:30:31.142Z,720
2017-10-11T12:31:30.342Z,724
2017-10-11T12:32:30.235Z,716
2017-10-11T12:33:30.551Z,732
2017-10-11T12:34:30.220Z,736
2017-10-11T12:35:30.141Z,740
2017-10-11T12:36:30.308Z,728
2017-10-11T12:37:30.624Z,724
2017-10-11T12:38:30.205Z,732
2017-10-11T12:39:30.190Z,732
2017-10-11T12:40:30.503Z,744
2017-10-11T12:41:30.173Z,736
2017-10-11T12:42:30.593Z,744
2017-10-11T12:43:30.162Z,748
2017-10-11T12:44:30.576Z,760
2017-10-11T12:45:29.830Z,756
2017-10-11T12:46:30.799Z,760
2017-10-11T12:47:30.612Z,764
2017-10-11T12:48:30.228Z,764
2017-10-11T12:49:30.449Z,760
2017-10-11T12:50:30.128Z,764
2017-10-11T12:51:30.432Z,768
2017-10-11T12:52:30.428Z,796
2017-10-11T12:53:30.521Z,780
2017-10-11T12:54:30.091Z,780
2017-10-11T12:55:30.408Z,784
2017-10-11T12:56:30.432Z,772
2017-10-11T12:57:30.070Z,792
2017-10-11T12:58:30.725Z,792
2017-10-11T12:59:30.815Z,800
2017-10-11T13:00:29.827Z,780
2017-10-11T13:01:29.869Z,796
2017-10-11T13:02:30.037Z,780
2017-10-11T13:03:30.356Z,788
2017-10-11T13:04:30.149Z,788
2017-10-11T13:05:30.669Z,784
2017-10-11T13:06:30.441Z,792
2017-10-11T13:07:30.004Z,780
2017-10-11T13:08:30.322Z,788
2017-10-11T13:09:30.414Z,796
2017-10-11T13:10:30.410Z,788
2017-10-11T13:11:30.179Z,788
2017-10-11T13:12:30.077Z,792
2017-10-11T13:13:29.971Z,788
2017-10-11T13:14:29.957Z,800
2017-10-11T13:15:30.379Z,812
2017-10-11T13:16:30.052Z,800
2017-10-11T13:17:30.039Z,800
2017-10-11T13:18:30.262Z,804
2017-10-11T13:19:30.572Z,816
2017-10-11T13:20:30.347Z,816
2017-10-11T13:21:30.017Z,820
2017-10-11T13:22:29.585Z,816
2017-10-11T13:23:29.902Z,816
2017-10-11T13:24:29.671Z,828
2017-10-11T13:25:30.221Z,828
2017-10-11T13:26:30.204Z,828
2017-10-11T13:27:29.554Z,824
2017-10-11T13:28:29.650Z,836
2017-10-11T13:29:30.531Z,828
2017-10-11T13:30:30.181Z,828
2017-10-11T13:31:29.857Z,840
2017-10-11T13:32:30.167Z,840
2017-10-11T13:33:30.368Z,836
2017-10-11T13:34:30.583Z,844
2017-10-11T13:35:30.143Z,844
2017-10-11T13:36:30.469Z,844
2017-10-11T13:37:29.592Z,844
2017-10-11T13:38:29.909Z,856
2017-10-11T13:39:29.577Z,860
2017-10-11T13:40:29.795Z,856
2017-10-11T13:41:29.888Z,856
2017-10-11T13:42:30.430Z,848
2017-10-11T13:43:29.450Z,848
2017-10-11T13:44:29.971Z,852
2017-10-11T13:45:30.191Z,852
2017-10-11T13:46:30.412Z,848
2017-10-11T13:47:30.500Z,852
2017-10-11T13:48:30.075Z,856
2017-10-11T13:49:30.167Z,872
2017-10-11T13:50:30.254Z,868
2017-10-11T13:51:30.370Z,872
2017-10-11T13:52:29.723Z,868
2017-10-11T13:53:30.377Z,868
2017-10-11T13:54:30.025Z,864
2017-10-11T13:55:30.326Z,868
2017-10-11T13:56:29.694Z,888
2017-10-11T13:57:29.785Z,888
2017-10-11T13:58:30.333Z,912
2017-10-11T13:59:30.345Z,884
2017-10-11T14:00:30.190Z,892
2017-10-11T14:01:30.008Z,896
2017-10-11T14:02:30.092Z,892
2017-10-11T14:03:29.659Z,892
2017-10-11T14:04:30.290Z,900
2017-10-11T14:05:30.158Z,920
2017-10-11T14:06:29.731Z,960
2017-10-11T14:07:30.052Z,1012
2017-10-11T14:08:29.624Z,1060
2017-10-11T14:09:30.271Z,1120